sensor_id;sensor_type;location;lat;lon;timestamp;pressure;altitude;pressure_sealevel;temperature;humidity
7918;BME280;4004;42.624;23.386;2023-06-19T00:00:42;94268.41;;;18.62;90.01
7918;BME280;4004;42.624;23.386;2023-06-19T00:03:08;94267.28;;;18.56;90.14
7918;BME280;4004;42.624;23.386;2023-06-19T00:05:35;94267.28;;;18.56;89.82
7918;BME280;4004;42.624;23.386;2023-06-19T00:08:02;94267.19;;;18.67;89.97
7918;BME280;4004;42.624;23.386;2023-06-19T00:10:31;94269.53;;;18.69;88.94
7918;BME280;4004;42.624;23.386;2023-06-19T00:13:00;94265.59;;;18.70;88.66
7918;BME280;4004;42.624;23.386;2023-06-19T00:15:26;94273.44;;;18.68;89.28
7918;BME280;4004;42.624;23.386;2023-06-19T00:17:55;94242.09;;;18.45;89.37
7918;BME280;4004;42.624;23.386;2023-06-19T00:20:23;94262.34;;;18.44;91.47
7918;BME280;4004;42.624;23.386;2023-06-19T00:22:49;94263.16;;;18.41;91.34
7918;BME280;4004;42.624;23.386;2023-06-19T00:25:17;94257.13;;;18.19;91.20
7918;BME280;4004;42.624;23.386;2023-06-19T00:27:43;94250.84;;;18.22;91.58
7918;BME280;4004;42.624;23.386;2023-06-19T00:30:12;94252.81;;;18.21;91.91
7918;BME280;4004;42.624;23.386;2023-06-19T00:32:39;94253.66;;;18.11;92.17
7918;BME280;4004;42.624;23.386;2023-06-19T00:35:12;94250.59;;;18.06;92.83
7918;BME280;4004;42.624;23.386;2023-06-19T00:37:39;94237.81;;;17.99;93.29
7918;BME280;4004;42.624;23.386;2023-06-19T00:40:12;94245.19;;;17.98;93.43
7918;BME280;4004;42.624;23.386;2023-06-19T00:42:41;94240.19;;;17.93;94.17
7918;BME280;4004;42.624;23.386;2023-06-19T00:45:09;94240.63;;;17.88;94.59
7918;BME280;4004;42.624;23.386;2023-06-19T00:47:37;94243.72;;;17.87;94.56
7918;BME280;4004;42.624;23.386;2023-06-19T00:50:05;94238.72;;;17.81;94.60
7918;BME280;4004;42.624;23.386;2023-06-19T00:52:33;94239.09;;;17.84;94.05
7918;BME280;4004;42.624;23.386;2023-06-19T00:55:01;94239.09;;;17.84;94.68
7918;BME280;4004;42.624;23.386;2023-06-19T00:57:28;94236.00;;;17.81;94.45
7918;BME280;4004;42.624;23.386;2023-06-19T00:59:55;94240.66;;;17.74;94.75
7918;BME280;4004;42.624;23.386;2023-06-19T01:02:23;94228.63;;;17.71;95.04
7918;BME280;4004;42.624;23.386;2023-06-19T01:04:52;94230.19;;;17.72;94.94
7918;BME280;4004;42.624;23.386;2023-06-19T01:07:24;94225.19;;;17.64;95.49
7918;BME280;4004;42.624;23.386;2023-06-19T01:09:55;94221.28;;;17.68;95.46
7918;BME280;4004;42.624;23.386;2023-06-19T01:12:28;94217.00;;;17.71;96.00
7918;BME280;4004;42.624;23.386;2023-06-19T01:14:58;94227.88;;;17.71;96.21
7918;BME280;4004;42.624;23.386;2023-06-19T01:17:25;94218.56;;;17.68;96.20
7918;BME280;4004;42.624;23.386;2023-06-19T01:19:54;94221.28;;;17.65;96.07
7918;BME280;4004;42.624;23.386;2023-06-19T01:22:27;94222.81;;;17.69;96.82
7918;BME280;4004;42.624;23.386;2023-06-19T01:24:53;94224.78;;;17.65;98.32
7918;BME280;4004;42.624;23.386;2023-06-19T01:27:20;94217.97;;;17.39;100.00
7918;BME280;4004;42.624;23.386;2023-06-19T01:29:48;94221.50;;;17.25;100.00
7918;BME280;4004;42.624;23.386;2023-06-19T01:32:18;94219.66;;;17.01;100.00
7918;BME280;4004;42.624;23.386;2023-06-19T01:34:47;94234.03;;;16.94;100.00
7918;BME280;4004;42.624;23.386;2023-06-19T01:37:16;94217.38;;;16.88;100.00
7918;BME280;4004;42.624;23.386;2023-06-19T01:39:45;94234.47;;;16.85;100.00
7918;BME280;4004;42.624;23.386;2023-06-19T01:42:13;94227.47;;;16.84;100.00
7918;BME280;4004;42.624;23.386;2023-06-19T01:44:41;94230.59;;;16.72;100.00
7918;BME280;4004;42.624;23.386;2023-06-19T01:47:09;94233.31;;;16.68;100.00
7918;BME280;4004;42.624;23.386;2023-06-19T01:49:36;94225.56;;;16.60;100.00
7918;BME280;4004;42.624;23.386;2023-06-19T01:52:04;94245.72;;;16.66;100.00
7918;BME280;4004;42.624;23.386;2023-06-19T01:54:31;94231.78;;;16.64;100.00
7918;BME280;4004;42.624;23.386;2023-06-19T01:56:59;94232.56;;;16.50;100.00
7918;BME280;4004;42.624;23.386;2023-06-19T01:59:26;94228.31;;;16.45;100.00
7918;BME280;4004;42.624;23.386;2023-06-19T02:01:53;94236.06;;;16.43;100.00
7918;BME280;4004;42.624;23.386;2023-06-19T02:04:19;94246.53;;;16.41;100.00
7918;BME280;4004;42.624;23.386;2023-06-19T02:06:46;94242.28;;;16.36;100.00
7918;BME280;4004;42.624;23.386;2023-06-19T02:09:13;94251.56;;;16.28;100.00
7918;BME280;4004;42.624;23.386;2023-06-19T02:11:40;94251.97;;;16.27;100.00
7918;BME280;4004;42.624;23.386;2023-06-19T02:14:09;94245.75;;;16.23;100.00
7918;BME280;4004;42.624;23.386;2023-06-19T02:16:35;94252.72;;;16.20;100.00
7918;BME280;4004;42.624;23.386;2023-06-19T02:19:02;94254.66;;;16.09;100.00
7918;BME280;4004;42.624;23.386;2023-06-19T02:21:29;94247.69;;;16.04;100.00
7918;BME280;4004;42.624;23.386;2023-06-19T02:23:56;94253.88;;;15.94;100.00
7918;BME280;4004;42.624;23.386;2023-06-19T02:26:23;94254.25;;;15.96;100.00
7918;BME280;4004;42.624;23.386;2023-06-19T02:28:52;94258.16;;;15.95;100.00
7918;BME280;4004;42.624;23.386;2023-06-19T02:31:21;94263.56;;;15.91;100.00
7918;BME280;4004;42.624;23.386;2023-06-19T02:33:47;94250.38;;;15.86;100.00
7918;BME280;4004;42.624;23.386;2023-06-19T02:36:14;94265.13;;;15.85;100.00
7918;BME280;4004;42.624;23.386;2023-06-19T02:38:44;94265.88;;;15.79;100.00
7918;BME280;4004;42.624;23.386;2023-06-19T02:41:11;94264.28;;;15.70;100.00
7918;BME280;4004;42.624;23.386;2023-06-19T02:43:39;94260.00;;;15.69;100.00
7918;BME280;4004;42.624;23.386;2023-06-19T02:46:06;94273.97;;;15.71;100.00
7918;BME280;4004;42.624;23.386;2023-06-19T02:48:34;94270.47;;;15.67;100.00
7918;BME280;4004;42.624;23.386;2023-06-19T02:51:00;94274.00;;;15.75;100.00
7918;BME280;4004;42.624;23.386;2023-06-19T02:53:27;94273.63;;;15.77;100.00
7918;BME280;4004;42.624;23.386;2023-06-19T02:55:54;94272.44;;;15.78;100.00
7918;BME280;4004;42.624;23.386;2023-06-19T02:58:21;94272.06;;;15.79;100.00
7918;BME280;4004;42.624;23.386;2023-06-19T03:00:48;94271.28;;;15.75;100.00
7918;BME280;4004;42.624;23.386;2023-06-19T03:03:15;94270.53;;;15.85;100.00
7918;BME280;4004;42.624;23.386;2023-06-19T03:05:43;94279.06;;;15.98;100.00
7918;BME280;4004;42.624;23.386;2023-06-19T03:08:10;94279.09;;;16.05;100.00
7918;BME280;4004;42.624;23.386;2023-06-19T03:10:37;94273.66;;;16.37;100.00
7918;BME280;4004;42.624;23.386;2023-06-19T03:13:03;94273.66;;;16.45;100.00
7918;BME280;4004;42.624;23.386;2023-06-19T03:15:30;94268.59;;;16.68;100.00
7918;BME280;4004;42.624;23.386;2023-06-19T03:17:57;94267.41;;;16.87;100.00
7918;BME280;4004;42.624;23.386;2023-06-19T03:20:24;94272.75;;;17.27;100.00
7918;BME280;4004;42.624;23.386;2023-06-19T03:22:52;94270.94;;;17.79;100.00
7918;BME280;4004;42.624;23.386;2023-06-19T03:25:19;94263.56;;;18.36;100.00
7918;BME280;4004;42.624;23.386;2023-06-19T03:27:46;94263.09;;;18.93;100.00
7918;BME280;4004;42.624;23.386;2023-06-19T03:30:13;94267.06;;;19.54;100.00
7918;BME280;4004;42.624;23.386;2023-06-19T03:32:40;94272.38;;;20.22;95.05
7918;BME280;4004;42.624;23.386;2023-06-19T03:35:07;94275.19;;;20.89;86.75
7918;BME280;4004;42.624;23.386;2023-06-19T03:37:35;94280.94;;;21.59;81.35
7918;BME280;4004;42.624;23.386;2023-06-19T03:40:04;94286.28;;;22.22;75.14
7918;BME280;4004;42.624;23.386;2023-06-19T03:42:31;94280.47;;;22.00;70.97
7918;BME280;4004;42.624;23.386;2023-06-19T03:44:59;94288.50;;;22.27;70.55
7918;BME280;4004;42.624;23.386;2023-06-19T03:47:26;94287.28;;;22.94;66.82
7918;BME280;4004;42.624;23.386;2023-06-19T03:49:53;94294.78;;;23.81;63.94
7918;BME280;4004;42.624;23.386;2023-06-19T03:52:19;94289.56;;;24.64;60.71
7918;BME280;4004;42.624;23.386;2023-06-19T03:54:46;94283.81;;;25.53;57.05
7918;BME280;4004;42.624;23.386;2023-06-19T03:57:14;94280.72;;;26.26;53.59
7918;BME280;4004;42.624;23.386;2023-06-19T03:59:41;94276.34;;;26.97;51.33
7918;BME280;4004;42.624;23.386;2023-06-19T04:02:08;94273.78;;;27.49;49.18
7918;BME280;4004;42.624;23.386;2023-06-19T04:04:34;94274.00;;;28.06;47.63
7918;BME280;4004;42.624;23.386;2023-06-19T04:07:01;94273.81;;;28.62;46.05
7918;BME280;4004;42.624;23.386;2023-06-19T04:09:28;94285.88;;;29.46;44.40
7918;BME280;4004;42.624;23.386;2023-06-19T04:11:54;94279.19;;;30.06;43.01
7918;BME280;4004;42.624;23.386;2023-06-19T04:14:22;94279.34;;;30.83;41.33
7918;BME280;4004;42.624;23.386;2023-06-19T04:16:49;94280.59;;;31.37;39.41
7918;BME280;4004;42.624;23.386;2023-06-19T04:19:16;94284.88;;;30.97;39.28
7918;BME280;4004;42.624;23.386;2023-06-19T04:21:43;94285.94;;;31.00;39.05
7918;BME280;4004;42.624;23.386;2023-06-19T04:24:09;94279.75;;;31.11;38.93
7918;BME280;4004;42.624;23.386;2023-06-19T04:26:36;94268.22;;;31.18;38.35
7918;BME280;4004;42.624;23.386;2023-06-19T04:29:03;94277.03;;;30.96;38.86
7918;BME280;4004;42.624;23.386;2023-06-19T04:31:33;94279.06;;;30.95;39.08
7918;BME280;4004;42.624;23.386;2023-06-19T04:34:06;94272.38;;;30.72;39.06
7918;BME280;4004;42.624;23.386;2023-06-19T04:36:32;94276.28;;;30.81;39.42
7918;BME280;4004;42.624;23.386;2023-06-19T04:38:59;94277.53;;;31.35;38.40
7918;BME280;4004;42.624;23.386;2023-06-19T04:41:26;94270.50;;;31.60;38.57
7918;BME280;4004;42.624;23.386;2023-06-19T04:43:53;94274.19;;;31.52;38.76
7918;BME280;4004;42.624;23.386;2023-06-19T04:46:19;94284.00;;;31.27;38.72
7918;BME280;4004;42.624;23.386;2023-06-19T04:48:48;94275.03;;;30.96;39.39
7918;BME280;4004;42.624;23.386;2023-06-19T04:51:16;94279.19;;;30.36;40.21
7918;BME280;4004;42.624;23.386;2023-06-19T04:53:45;94285.59;;;29.98;40.29
7918;BME280;4004;42.624;23.386;2023-06-19T04:56:12;94278.31;;;29.31;41.53
7918;BME280;4004;42.624;23.386;2023-06-19T04:58:39;94274.44;;;29.53;41.59
7918;BME280;4004;42.624;23.386;2023-06-19T05:01:11;94275.25;;;29.29;41.59
7918;BME280;4004;42.624;23.386;2023-06-19T05:03:38;94281.47;;;29.78;40.86
7918;BME280;4004;42.624;23.386;2023-06-19T05:06:06;94280.06;;;29.98;40.16
7918;BME280;4004;42.624;23.386;2023-06-19T05:08:34;94272.38;;;30.22;39.22
7918;BME280;4004;42.624;23.386;2023-06-19T05:11:00;94276.00;;;30.93;39.17
7918;BME280;4004;42.624;23.386;2023-06-19T05:13:27;94268.78;;;30.66;38.61
7918;BME280;4004;42.624;23.386;2023-06-19T05:15:54;94274.63;;;31.24;37.00
7918;BME280;4004;42.624;23.386;2023-06-19T05:18:21;94275.16;;;30.87;37.30
7918;BME280;4004;42.624;23.386;2023-06-19T05:20:48;94276.34;;;31.01;37.66
7918;BME280;4004;42.624;23.386;2023-06-19T05:23:16;94286.63;;;31.56;37.12
7918;BME280;4004;42.624;23.386;2023-06-19T05:25:43;94281.31;;;32.05;36.53
7918;BME280;4004;42.624;23.386;2023-06-19T05:28:11;94278.38;;;32.46;35.62
7918;BME280;4004;42.624;23.386;2023-06-19T05:30:37;94288.34;;;33.56;33.85
7918;BME280;4004;42.624;23.386;2023-06-19T05:33:05;94288.25;;;33.28;33.47
7918;BME280;4004;42.624;23.386;2023-06-19T05:35:32;94301.22;;;34.13;33.43
7918;BME280;4004;42.624;23.386;2023-06-19T05:37:59;94312.38;;;34.81;32.57
7918;BME280;4004;42.624;23.386;2023-06-19T05:40:27;94314.88;;;35.01;30.64
7918;BME280;4004;42.624;23.386;2023-06-19T05:42:54;94308.56;;;35.76;29.18
7918;BME280;4004;42.624;23.386;2023-06-19T05:45:22;94306.22;;;36.27;28.59
7918;BME280;4004;42.624;23.386;2023-06-19T05:47:48;94313.59;;;36.66;27.14
7918;BME280;4004;42.624;23.386;2023-06-19T05:50:15;94306.03;;;37.10;26.39
7918;BME280;4004;42.624;23.386;2023-06-19T05:52:42;94308.25;;;37.42;26.13
7918;BME280;4004;42.624;23.386;2023-06-19T05:55:09;94308.91;;;37.29;26.60
7918;BME280;4004;42.624;23.386;2023-06-19T05:57:37;94300.66;;;37.37;26.23
7918;BME280;4004;42.624;23.386;2023-06-19T06:00:05;94298.06;;;36.29;27.43
7918;BME280;4004;42.624;23.386;2023-06-19T06:02:36;94302.91;;;36.59;26.89
7918;BME280;4004;42.624;23.386;2023-06-19T06:05:03;94308.56;;;36.54;26.81
7918;BME280;4004;42.624;23.386;2023-06-19T06:07:30;94305.03;;;36.83;26.77
7918;BME280;4004;42.624;23.386;2023-06-19T06:09:56;94303.44;;;36.88;26.65
7918;BME280;4004;42.624;23.386;2023-06-19T06:12:24;94305.78;;;36.54;26.46
7918;BME280;4004;42.624;23.386;2023-06-19T06:14:52;94315.22;;;37.11;26.27
7918;BME280;4004;42.624;23.386;2023-06-19T06:17:18;94308.19;;;36.99;26.15
7918;BME280;4004;42.624;23.386;2023-06-19T06:19:45;94308.94;;;36.39;26.26
7918;BME280;4004;42.624;23.386;2023-06-19T06:22:12;94310.97;;;36.02;26.58
7918;BME280;4004;42.624;23.386;2023-06-19T06:24:39;94319.28;;;35.55;27.38
7918;BME280;4004;42.624;23.386;2023-06-19T06:27:06;94313.16;;;34.70;27.98
7918;BME280;4004;42.624;23.386;2023-06-19T06:29:33;94315.09;;;35.26;27.79
7918;BME280;4004;42.624;23.386;2023-06-19T06:32:06;94307.56;;;35.74;27.35
7918;BME280;4004;42.624;23.386;2023-06-19T06:34:33;94313.03;;;35.32;28.00
7918;BME280;4004;42.624;23.386;2023-06-19T06:37:00;94306.06;;;34.69;28.72
7918;BME280;4004;42.624;23.386;2023-06-19T06:39:27;94313.13;;;34.93;28.41
7918;BME280;4004;42.624;23.386;2023-06-19T06:41:54;94307.25;;;35.19;28.49
7918;BME280;4004;42.624;23.386;2023-06-19T06:44:21;94320.00;;;34.63;29.07
7918;BME280;4004;42.624;23.386;2023-06-19T06:46:48;94316.88;;;35.29;28.97
7918;BME280;4004;42.624;23.386;2023-06-19T06:49:16;94318.72;;;34.81;29.46
7918;BME280;4004;42.624;23.386;2023-06-19T06:51:43;94310.38;;;34.42;29.54
7918;BME280;4004;42.624;23.386;2023-06-19T06:54:10;94311.28;;;33.94;30.39
7918;BME280;4004;42.624;23.386;2023-06-19T06:56:36;94319.44;;;33.32;31.29
7918;BME280;4004;42.624;23.386;2023-06-19T06:59:03;94306.88;;;32.67;32.11
7918;BME280;4004;42.624;23.386;2023-06-19T07:01:30;94309.03;;;32.20;32.89
7918;BME280;4004;42.624;23.386;2023-06-19T07:03:57;94305.88;;;31.60;33.34
7918;BME280;4004;42.624;23.386;2023-06-19T07:06:25;94294.41;;;31.52;33.55
7918;BME280;4004;42.624;23.386;2023-06-19T07:08:51;94300.31;;;31.39;34.17
7918;BME280;4004;42.624;23.386;2023-06-19T07:11:18;94310.44;;;31.22;34.25
7918;BME280;4004;42.624;23.386;2023-06-19T07:13:45;94311.75;;;31.06;34.85
7918;BME280;4004;42.624;23.386;2023-06-19T07:16:11;94308.44;;;31.23;34.46
7918;BME280;4004;42.624;23.386;2023-06-19T07:18:38;94309.47;;;31.46;34.38
7918;BME280;4004;42.624;23.386;2023-06-19T07:21:10;94310.84;;;31.76;33.77
7918;BME280;4004;42.624;23.386;2023-06-19T07:23:39;94310.56;;;31.74;32.64
7918;BME280;4004;42.624;23.386;2023-06-19T07:26:06;94313.19;;;31.84;33.08
7918;BME280;4004;42.624;23.386;2023-06-19T07:28:33;94312.50;;;31.89;32.79
7918;BME280;4004;42.624;23.386;2023-06-19T07:31:01;94322.72;;;31.77;33.35
7918;BME280;4004;42.624;23.386;2023-06-19T07:33:28;94307.72;;;31.69;33.14
7918;BME280;4004;42.624;23.386;2023-06-19T07:35:55;94317.03;;;31.66;32.50
7918;BME280;4004;42.624;23.386;2023-06-19T07:38:22;94314.94;;;30.99;33.43
7918;BME280;4004;42.624;23.386;2023-06-19T07:40:51;94316.66;;;30.46;34.77
7918;BME280;4004;42.624;23.386;2023-06-19T07:43:17;94308.34;;;30.46;34.46
7918;BME280;4004;42.624;23.386;2023-06-19T07:45:44;94304.53;;;30.79;34.56
7918;BME280;4004;42.624;23.386;2023-06-19T07:48:11;94305.91;;;30.69;34.21
7918;BME280;4004;42.624;23.386;2023-06-19T07:50:37;94312.34;;;30.60;33.90
7918;BME280;4004;42.624;23.386;2023-06-19T07:53:04;94311.88;;;30.62;33.48
7918;BME280;4004;42.624;23.386;2023-06-19T07:55:31;94307.19;;;30.38;34.02
7918;BME280;4004;42.624;23.386;2023-06-19T07:58:02;94306.91;;;30.51;33.80
7918;BME280;4004;42.624;23.386;2023-06-19T08:00:28;94315.41;;;30.47;34.72
7918;BME280;4004;42.624;23.386;2023-06-19T08:02:55;94309.56;;;30.45;34.35
7918;BME280;4004;42.624;23.386;2023-06-19T08:05:22;94314.56;;;30.26;34.77
7918;BME280;4004;42.624;23.386;2023-06-19T08:07:49;94306.22;;;29.96;35.16
7918;BME280;4004;42.624;23.386;2023-06-19T08:10:16;94308.81;;;29.85;36.52
7918;BME280;4004;42.624;23.386;2023-06-19T08:12:43;94303.72;;;29.69;38.20
7918;BME280;4004;42.624;23.386;2023-06-19T08:15:12;94311.59;;;29.46;42.22
7918;BME280;4004;42.624;23.386;2023-06-19T08:17:39;94305.13;;;29.25;38.32
7918;BME280;4004;42.624;23.386;2023-06-19T08:20:07;94293.44;;;28.97;38.33
7918;BME280;4004;42.624;23.386;2023-06-19T08:22:35;94301.44;;;28.71;37.06
7918;BME280;4004;42.624;23.386;2023-06-19T08:25:02;94298.75;;;28.52;38.00
7918;BME280;4004;42.624;23.386;2023-06-19T08:27:28;94297.53;;;28.44;37.99
7918;BME280;4004;42.624;23.386;2023-06-19T08:29:55;94294.47;;;28.42;37.86
7918;BME280;4004;42.624;23.386;2023-06-19T08:32:23;94309.00;;;28.61;36.31
7918;BME280;4004;42.624;23.386;2023-06-19T08:34:50;94300.31;;;28.78;37.53
7918;BME280;4004;42.624;23.386;2023-06-19T08:37:17;94294.25;;;28.64;38.45
7918;BME280;4004;42.624;23.386;2023-06-19T08:39:44;94304.91;;;28.38;37.12
7918;BME280;4004;42.624;23.386;2023-06-19T08:42:11;94306.78;;;28.32;36.76
7918;BME280;4004;42.624;23.386;2023-06-19T08:44:38;94305.56;;;28.33;35.46
7918;BME280;4004;42.624;23.386;2023-06-19T08:47:05;94310.03;;;28.30;35.87
7918;BME280;4004;42.624;23.386;2023-06-19T08:49:35;94308.53;;;28.20;35.54
7918;BME280;4004;42.624;23.386;2023-06-19T08:52:02;94305.03;;;28.10;35.95
7918;BME280;4004;42.624;23.386;2023-06-19T08:54:30;94298.78;;;27.64;36.49
7918;BME280;4004;42.624;23.386;2023-06-19T08:57:00;94297.69;;;27.70;35.95
7918;BME280;4004;42.624;23.386;2023-06-19T08:59:26;94298.00;;;27.54;36.39
7918;BME280;4004;42.624;23.386;2023-06-19T09:01:54;94303.06;;;27.65;37.17
7918;BME280;4004;42.624;23.386;2023-06-19T09:04:22;94299.97;;;27.72;37.27
7918;BME280;4004;42.624;23.386;2023-06-19T09:06:51;94302.31;;;27.55;37.48
7918;BME280;4004;42.624;23.386;2023-06-19T09:09:19;94313.19;;;27.49;38.31
7918;BME280;4004;42.624;23.386;2023-06-19T09:11:57;94300.16;;;27.41;36.59
7918;BME280;4004;42.624;23.386;2023-06-19T09:14:24;94310.00;;;27.33;36.60
7918;BME280;4004;42.624;23.386;2023-06-19T09:16:57;94286.16;;;27.07;37.27
7918;BME280;4004;42.624;23.386;2023-06-19T09:19:24;94295.00;;;26.75;38.18
7918;BME280;4004;42.624;23.386;2023-06-19T09:21:52;94298.00;;;26.58;39.97
7918;BME280;4004;42.624;23.386;2023-06-19T09:24:18;94297.47;;;26.73;39.26
7918;BME280;4004;42.624;23.386;2023-06-19T09:26:45;94295.03;;;26.84;37.85
7918;BME280;4004;42.624;23.386;2023-06-19T09:29:13;94294.44;;;26.98;36.96
7918;BME280;4004;42.624;23.386;2023-06-19T09:31:41;94295.94;;;26.81;40.42
7918;BME280;4004;42.624;23.386;2023-06-19T09:34:08;94287.19;;;26.73;40.48
7918;BME280;4004;42.624;23.386;2023-06-19T09:36:35;94288.69;;;26.65;40.01
7918;BME280;4004;42.624;23.386;2023-06-19T09:39:04;94292.06;;;26.60;40.29
7918;BME280;4004;42.624;23.386;2023-06-19T09:41:32;94291.50;;;26.43;40.13
7918;BME280;4004;42.624;23.386;2023-06-19T09:44:00;94290.88;;;26.39;40.23
7918;BME280;4004;42.624;23.386;2023-06-19T09:46:30;94285.09;;;26.46;39.38
7918;BME280;4004;42.624;23.386;2023-06-19T09:49:00;94293.19;;;26.40;39.27
7918;BME280;4004;42.624;23.386;2023-06-19T09:51:30;94286.09;;;26.30;40.43
7918;BME280;4004;42.624;23.386;2023-06-19T09:53:58;94287.00;;;26.27;40.48
7918;BME280;4004;42.624;23.386;2023-06-19T09:56:29;94283.66;;;26.32;38.67
7918;BME280;4004;42.624;23.386;2023-06-19T09:58:57;94280.44;;;26.34;38.75
7918;BME280;4004;42.624;23.386;2023-06-19T10:01:26;94284.50;;;26.11;39.59
7918;BME280;4004;42.624;23.386;2023-06-19T10:04:02;94284.66;;;26.16;39.50
7918;BME280;4004;42.624;23.386;2023-06-19T10:06:30;94278.03;;;26.04;39.41
7918;BME280;4004;42.624;23.386;2023-06-19T10:09:05;94290.66;;;25.93;39.62
7918;BME280;4004;42.624;23.386;2023-06-19T10:11:46;94276.66;;;25.87;39.52
7918;BME280;4004;42.624;23.386;2023-06-19T10:14:13;94274.00;;;25.96;40.05
7918;BME280;4004;42.624;23.386;2023-06-19T10:16:45;94271.06;;;25.91;38.68
7918;BME280;4004;42.624;23.386;2023-06-19T10:19:13;94276.50;;;25.81;38.25
7918;BME280;4004;42.624;23.386;2023-06-19T10:21:45;94272.97;;;25.81;38.65
7918;BME280;4004;42.624;23.386;2023-06-19T10:24:14;94274.69;;;25.65;39.83
7918;BME280;4004;42.624;23.386;2023-06-19T10:26:55;94266.06;;;25.54;39.69
7918;BME280;4004;42.624;23.386;2023-06-19T10:29:23;94266.84;;;25.55;39.80
7918;BME280;4004;42.624;23.386;2023-06-19T10:31:51;94248.28;;;25.46;36.45
7918;BME280;4004;42.624;23.386;2023-06-19T10:34:18;94257.63;;;25.49;39.76
7918;BME280;4004;42.624;23.386;2023-06-19T10:36:44;94254.34;;;25.41;39.90
7918;BME280;4004;42.624;23.386;2023-06-19T10:39:11;94256.94;;;25.35;39.12
7918;BME280;4004;42.624;23.386;2023-06-19T10:41:40;94266.84;;;25.33;39.13
7918;BME280;4004;42.624;23.386;2023-06-19T10:44:08;94263.00;;;25.30;39.41
7918;BME280;4004;42.624;23.386;2023-06-19T10:46:38;94253.97;;;25.30;39.77
7918;BME280;4004;42.624;23.386;2023-06-19T10:49:07;94252.63;;;25.34;40.21
7918;BME280;4004;42.624;23.386;2023-06-19T10:51:36;94252.81;;;25.40;39.82
7918;BME280;4004;42.624;23.386;2023-06-19T10:54:03;94258.59;;;25.55;38.56
7918;BME280;4004;42.624;23.386;2023-06-19T10:56:30;94255.94;;;25.73;38.41
7918;BME280;4004;42.624;23.386;2023-06-19T10:58:58;94258.19;;;25.88;37.33
7918;BME280;4004;42.624;23.386;2023-06-19T11:01:33;94245.63;;;25.87;39.69
7918;BME280;4004;42.624;23.386;2023-06-19T11:04:03;94248.88;;;25.94;38.49
7918;BME280;4004;42.624;23.386;2023-06-19T11:06:30;94248.75;;;25.98;38.44
7918;BME280;4004;42.624;23.386;2023-06-19T11:08:57;94239.13;;;26.02;38.27
7918;BME280;4004;42.624;23.386;2023-06-19T11:11:34;94246.81;;;26.08;38.50
7918;BME280;4004;42.624;23.386;2023-06-19T11:14:01;94243.72;;;26.05;39.40
7918;BME280;4004;42.624;23.386;2023-06-19T11:16:28;94247.38;;;25.93;39.29
7918;BME280;4004;42.624;23.386;2023-06-19T11:18:57;94252.19;;;26.11;38.64
7918;BME280;4004;42.624;23.386;2023-06-19T11:21:29;94236.78;;;26.32;39.59
7918;BME280;4004;42.624;23.386;2023-06-19T11:23:58;94233.59;;;26.43;39.81
7918;BME280;4004;42.624;23.386;2023-06-19T11:26:25;94239.88;;;26.43;39.40
7918;BME280;4004;42.624;23.386;2023-06-19T11:28:52;94237.16;;;26.53;39.80
7918;BME280;4004;42.624;23.386;2023-06-19T11:31:26;94228.81;;;26.75;39.52
7918;BME280;4004;42.624;23.386;2023-06-19T11:33:59;94240.31;;;26.92;38.87
7918;BME280;4004;42.624;23.386;2023-06-19T11:36:27;94240.78;;;26.99;39.06
7918;BME280;4004;42.624;23.386;2023-06-19T11:38:55;94234.66;;;27.14;38.82
7918;BME280;4004;42.624;23.386;2023-06-19T11:41:25;94237.28;;;27.36;39.01
7918;BME280;4004;42.624;23.386;2023-06-19T11:43:58;94239.72;;;27.43;39.00
7918;BME280;4004;42.624;23.386;2023-06-19T11:46:29;94234.22;;;27.43;39.40
7918;BME280;4004;42.624;23.386;2023-06-19T11:48:56;94228.41;;;27.22;40.18
7918;BME280;4004;42.624;23.386;2023-06-19T11:51:34;94224.84;;;27.13;40.70
7918;BME280;4004;42.624;23.386;2023-06-19T11:54:01;94229.59;;;27.12;41.07
7918;BME280;4004;42.624;23.386;2023-06-19T11:56:28;94225.31;;;27.11;39.21
7918;BME280;4004;42.624;23.386;2023-06-19T11:58:55;94219.94;;;27.07;40.62
7918;BME280;4004;42.624;23.386;2023-06-19T12:01:22;94220.56;;;27.30;40.09
7918;BME280;4004;42.624;23.386;2023-06-19T12:03:49;94217.81;;;27.39;39.93
7918;BME280;4004;42.624;23.386;2023-06-19T12:06:16;94220.06;;;27.50;39.77
7918;BME280;4004;42.624;23.386;2023-06-19T12:08:45;94214.09;;;27.61;39.40
7918;BME280;4004;42.624;23.386;2023-06-19T12:11:12;94217.59;;;27.70;39.71
7918;BME280;4004;42.624;23.386;2023-06-19T12:13:40;94226.88;;;27.31;40.29
7918;BME280;4004;42.624;23.386;2023-06-19T12:16:07;94216.88;;;27.05;41.36
7918;BME280;4004;42.624;23.386;2023-06-19T12:18:33;94213.34;;;27.05;41.05
7918;BME280;4004;42.624;23.386;2023-06-19T12:21:00;94215.50;;;27.01;41.33
7918;BME280;4004;42.624;23.386;2023-06-19T12:23:27;94212.41;;;26.99;40.49
7918;BME280;4004;42.624;23.386;2023-06-19T12:25:55;94219.50;;;26.91;40.94
7918;BME280;4004;42.624;23.386;2023-06-19T12:28:22;94206.13;;;26.80;41.44
7918;BME280;4004;42.624;23.386;2023-06-19T12:30:51;94206.28;;;26.76;41.85
7918;BME280;4004;42.624;23.386;2023-06-19T12:33:18;94203.19;;;26.56;42.50
7918;BME280;4004;42.624;23.386;2023-06-19T12:35:46;94209.59;;;26.53;44.00
7918;BME280;4004;42.624;23.386;2023-06-19T12:38:12;94202.31;;;26.68;42.50
7918;BME280;4004;42.624;23.386;2023-06-19T12:40:39;94204.88;;;26.62;41.43
7918;BME280;4004;42.624;23.386;2023-06-19T12:43:08;94207.78;;;26.59;42.22
7918;BME280;4004;42.624;23.386;2023-06-19T12:45:34;94204.13;;;26.62;42.92
7918;BME280;4004;42.624;23.386;2023-06-19T12:48:01;94200.16;;;26.72;43.11
7918;BME280;4004;42.624;23.386;2023-06-19T12:50:29;94194.63;;;26.72;42.25
7918;BME280;4004;42.624;23.386;2023-06-19T12:52:56;94202.91;;;26.72;42.70
7918;BME280;4004;42.624;23.386;2023-06-19T12:55:23;94197.69;;;26.65;42.73
7918;BME280;4004;42.624;23.386;2023-06-19T12:57:50;94201.56;;;26.86;42.02
7918;BME280;4004;42.624;23.386;2023-06-19T13:00:18;94193.72;;;26.75;41.54
7918;BME280;4004;42.624;23.386;2023-06-19T13:02:45;94189.91;;;26.82;41.36
7918;BME280;4004;42.624;23.386;2023-06-19T13:05:12;94190.97;;;26.84;41.40
7918;BME280;4004;42.624;23.386;2023-06-19T13:07:39;94195.88;;;26.80;41.33
7918;BME280;4004;42.624;23.386;2023-06-19T13:10:06;94192.53;;;26.95;41.66
7918;BME280;4004;42.624;23.386;2023-06-19T13:12:33;94196.66;;;26.99;41.51